createdAt,value
2018-06-05T00:01:34.347Z,22.80
2018-06-05T00:04:02.991Z,22.80
2018-06-05T00:06:31.591Z,22.80
2018-06-05T00:09:00.162Z,22.80
2018-06-05T00:11:28.950Z,22.70
2018-06-05T00:13:57.490Z,22.70
2018-06-05T00:16:26.188Z,22.60
2018-06-05T00:18:54.771Z,22.50
2018-06-05T00:21:23.445Z,22.40
2018-06-05T00:23:52.108Z,22.40
2018-06-05T00:26:20.688Z,22.30
2018-06-05T00:28:49.262Z,22.30
2018-06-05T00:33:46.020Z,22.30
2018-06-05T00:36:14.590Z,22.40
2018-06-05T00:38:43.227Z,22.30
2018-06-05T00:41:11.815Z,22.30
2018-06-05T00:43:40.423Z,22.20
2018-06-05T00:46:09.054Z,22.10
2018-06-05T00:48:37.626Z,22.10
2018-06-05T00:51:17.263Z,22.10
2018-06-05T00:56:14.038Z,22.10
2018-06-05T00:58:42.608Z,22.10
2018-06-05T01:01:11.271Z,22.20
2018-06-05T01:03:39.854Z,22.10
2018-06-05T01:06:08.419Z,22.00
2018-06-05T01:08:37.039Z,22.10
2018-06-05T01:11:05.648Z,22.20
2018-06-05T01:13:49.021Z,22.30
2018-06-05T01:16:17.594Z,22.30
2018-06-05T01:18:46.219Z,22.10
2018-06-05T01:21:14.835Z,22.10
2018-06-05T01:23:43.519Z,22.00
2018-06-05T01:26:12.080Z,22.20
2018-06-05T01:31:08.968Z,22.10
2018-06-05T01:33:37.561Z,22.00
2018-06-05T01:36:06.223Z,22.00
2018-06-05T01:38:34.756Z,22.00
2018-06-05T01:41:03.302Z,22.00
2018-06-05T01:43:31.876Z,21.80
2018-06-05T01:46:00.531Z,21.80
2018-06-05T01:48:43.399Z,21.80
2018-06-05T01:51:12.015Z,21.70
2018-06-05T01:53:40.572Z,21.60
2018-06-05T01:56:09.165Z,21.50
2018-06-05T01:58:37.685Z,21.50
2018-06-05T02:01:06.274Z,21.50
2018-06-05T02:03:34.852Z,21.50
2018-06-05T02:06:03.393Z,21.50
2018-06-05T02:08:31.977Z,21.40
2018-06-05T02:11:00.556Z,21.40
2018-06-05T02:13:29.174Z,21.40
2018-06-05T02:15:57.725Z,21.30
2018-06-05T02:18:26.257Z,21.30
2018-06-05T02:20:54.944Z,21.30
2018-06-05T02:23:23.461Z,21.30
2018-06-05T02:25:52.165Z,21.30
2018-06-05T02:28:20.750Z,21.30
2018-06-05T02:30:49.334Z,21.20
2018-06-05T02:33:17.915Z,21.10
2018-06-05T02:35:46.553Z,21.10
2018-06-05T02:38:15.133Z,21.10
2018-06-05T02:40:43.770Z,21.10
2018-06-05T02:43:12.315Z,21.10
2018-06-05T02:45:40.941Z,21.10
2018-06-05T02:48:09.607Z,21.10
2018-06-05T02:50:38.175Z,21.20
2018-06-05T02:55:35.044Z,21.10
2018-06-05T02:58:03.644Z,21.00
2018-06-05T03:00:32.239Z,21.00
2018-06-05T03:03:00.888Z,21.00
2018-06-05T03:05:29.567Z,21.00
2018-06-05T03:07:58.190Z,21.10
2018-06-05T03:10:26.878Z,21.00
2018-06-05T03:12:55.565Z,21.00
2018-06-05T03:15:24.152Z,20.80
2018-06-05T03:17:52.802Z,20.80
2018-06-05T03:20:21.483Z,20.80
2018-06-05T03:22:50.026Z,20.70
2018-06-05T03:25:18.664Z,20.80
2018-06-05T03:27:47.382Z,20.70
2018-06-05T03:30:16.022Z,20.80
2018-06-05T03:32:44.659Z,20.80
2018-06-05T03:35:13.328Z,20.80
2018-06-05T03:37:41.889Z,20.80
2018-06-05T03:40:10.471Z,20.80
2018-06-05T03:42:39.193Z,20.80
2018-06-05T03:45:07.786Z,20.80
2018-06-05T03:47:36.672Z,20.70
2018-06-05T03:50:05.251Z,20.70
2018-06-05T03:52:33.807Z,20.60
2018-06-05T03:55:02.414Z,20.60
2018-06-05T03:57:31.011Z,20.70
2018-06-05T03:59:59.659Z,20.70
2018-06-05T04:02:28.183Z,20.70
2018-06-05T04:04:56.798Z,20.70
2018-06-05T04:07:25.351Z,20.70
2018-06-05T04:09:53.884Z,20.70
2018-06-05T04:12:22.434Z,20.70
2018-06-05T04:14:50.960Z,20.60
2018-06-05T04:17:20.402Z,20.60
2018-06-05T04:19:48.932Z,20.60
2018-06-05T04:22:17.510Z,20.70
2018-06-05T04:24:46.179Z,20.70
2018-06-05T04:27:14.848Z,20.60
2018-06-05T04:29:43.383Z,20.70
2018-06-05T04:32:12.195Z,20.60
2018-06-05T04:34:40.759Z,20.60
2018-06-05T04:37:09.374Z,20.70
2018-06-05T04:39:37.980Z,20.80
2018-06-05T04:42:06.509Z,20.80
2018-06-05T04:44:35.130Z,20.80
2018-06-05T04:47:03.803Z,20.90
2018-06-05T04:49:32.350Z,20.90
2018-06-05T04:54:29.195Z,21.00
2018-06-05T04:56:57.770Z,21.00
2018-06-05T04:59:26.309Z,21.00
2018-06-05T05:01:55.261Z,21.00
2018-06-05T05:04:23.923Z,21.10
2018-06-05T05:06:52.471Z,21.10
2018-06-05T05:09:21.557Z,21.30
2018-06-05T05:11:50.266Z,21.30
2018-06-05T05:14:18.929Z,21.50
2018-06-05T05:16:47.888Z,21.50
2018-06-05T05:19:16.528Z,21.60
2018-06-05T05:21:45.192Z,21.70
2018-06-05T05:24:13.819Z,21.80
2018-06-05T05:26:42.363Z,21.90
2018-06-05T05:29:10.900Z,21.90
2018-06-05T05:31:39.565Z,22.00
2018-06-05T05:34:08.151Z,22.10
2018-06-05T05:36:36.729Z,22.30
2018-06-05T05:39:07.026Z,22.30
2018-06-05T05:41:35.746Z,22.40
2018-06-05T05:44:04.432Z,22.40
2018-06-05T05:46:33.083Z,22.50
2018-06-05T05:49:01.631Z,22.60
2018-06-05T05:51:30.295Z,22.70
2018-06-05T05:53:58.903Z,22.70
2018-06-05T05:56:27.549Z,22.80
2018-06-05T05:58:56.131Z,22.90
2018-06-05T06:01:24.759Z,23.00
2018-06-05T06:03:53.584Z,23.00
2018-06-05T06:06:22.284Z,23.00
2018-06-05T06:08:50.796Z,23.10
2018-06-05T06:11:19.336Z,23.20
2018-06-05T06:13:47.914Z,23.20
2018-06-05T06:16:16.500Z,23.30
2018-06-05T06:18:45.357Z,23.30
2018-06-05T06:23:42.339Z,23.60
2018-06-05T06:26:11.063Z,23.60
2018-06-05T06:28:39.718Z,23.70
2018-06-05T06:31:08.303Z,23.70
2018-06-05T06:33:36.846Z,23.80
2018-06-05T06:36:05.479Z,23.80
2018-06-05T06:38:48.523Z,23.90
2018-06-05T06:41:17.479Z,24.00
2018-06-05T06:43:46.445Z,24.10
2018-06-05T06:46:15.001Z,24.30
2018-06-05T06:48:43.574Z,24.50
2018-06-05T06:51:12.110Z,24.80
2018-06-05T06:53:40.805Z,25.00
2018-06-05T06:56:09.379Z,25.30
2018-06-05T06:58:37.986Z,25.50
2018-06-05T07:01:06.914Z,25.70
2018-06-05T07:03:40.611Z,25.90
2018-06-05T07:06:09.638Z,26.10
2018-06-05T07:08:38.520Z,26.20
2018-06-05T07:11:07.172Z,26.40
2018-06-05T07:13:35.725Z,26.50
2018-06-05T07:16:04.354Z,26.60
2018-06-05T07:18:32.820Z,26.80
2018-06-05T07:21:01.508Z,26.90
2018-06-05T07:23:30.378Z,27.00
2018-06-05T07:25:59.021Z,27.20
2018-06-05T07:28:27.634Z,27.20
2018-06-05T07:30:56.618Z,27.30
2018-06-05T07:33:25.209Z,27.40
2018-06-05T07:35:53.826Z,27.40
2018-06-05T07:38:22.433Z,27.50
2018-06-05T07:40:51.184Z,27.60
2018-06-05T07:43:20.331Z,27.70
2018-06-05T07:45:49.002Z,27.70
2018-06-05T07:48:17.543Z,27.70
2018-06-05T07:50:46.111Z,27.70
2018-06-05T07:53:14.919Z,27.80
2018-06-05T07:55:43.601Z,27.80
2018-06-05T07:58:12.271Z,27.90
2018-06-05T08:00:40.876Z,28.00
2018-06-05T08:05:52.320Z,28.00
2018-06-05T08:08:20.912Z,28.00
2018-06-05T08:10:49.519Z,27.90
2018-06-05T08:13:18.094Z,28.00
2018-06-05T08:15:46.712Z,28.00
2018-06-05T08:18:15.326Z,28.10
2018-06-05T08:20:44.073Z,28.00
2018-06-05T08:23:12.981Z,28.00
2018-06-05T08:25:42.205Z,28.00
2018-06-05T08:28:10.838Z,28.00
2018-06-05T08:30:39.452Z,28.00
2018-06-05T08:33:07.997Z,28.10
2018-06-05T08:35:36.612Z,28.10
2018-06-05T08:38:05.289Z,28.10
2018-06-05T08:40:33.983Z,28.20
2018-06-05T08:43:02.689Z,28.20
2018-06-05T08:45:31.215Z,28.10
2018-06-05T08:47:59.936Z,28.10
2018-06-05T08:50:28.608Z,28.10
2018-06-05T08:52:57.176Z,28.10
2018-06-05T08:55:25.832Z,28.20
2018-06-05T08:57:54.385Z,28.20
2018-06-05T09:00:23.018Z,28.20
2018-06-05T09:02:52.034Z,28.10
2018-06-05T09:05:20.974Z,28.20
2018-06-05T09:07:49.558Z,28.20
2018-06-05T09:10:18.162Z,28.10
2018-06-05T09:12:46.993Z,28.10
2018-06-05T09:15:15.611Z,28.10
2018-06-05T09:17:44.302Z,28.10
2018-06-05T09:20:13.102Z,28.00
2018-06-05T09:22:41.739Z,28.00
2018-06-05T09:25:10.405Z,28.00
2018-06-05T09:27:39.239Z,27.90
2018-06-05T09:30:07.870Z,27.90
2018-06-05T09:32:36.725Z,27.90
2018-06-05T09:35:05.273Z,27.90
2018-06-05T09:37:33.795Z,27.90
2018-06-05T09:40:02.365Z,27.90
2018-06-05T09:42:31.005Z,27.80
2018-06-05T09:44:59.916Z,27.80
2018-06-05T09:47:28.600Z,27.80
2018-06-05T09:49:57.215Z,27.90
2018-06-05T09:52:28.108Z,27.90
2018-06-05T09:54:56.703Z,27.80
2018-06-05T09:57:26.231Z,27.90
2018-06-05T09:59:54.801Z,27.90
2018-06-05T10:02:23.426Z,28.00
2018-06-05T10:04:52.497Z,27.90
2018-06-05T10:07:21.280Z,27.80
2018-06-05T10:09:49.853Z,27.80
2018-06-05T10:12:18.436Z,27.80
2018-06-05T10:14:47.157Z,27.70
2018-06-05T10:17:15.848Z,27.70
2018-06-05T10:19:44.585Z,27.70
2018-06-05T10:22:13.270Z,27.60
2018-06-05T10:24:42.016Z,27.60
2018-06-05T10:27:10.693Z,27.60
2018-06-05T10:29:39.339Z,27.50
2018-06-05T10:32:08.180Z,27.50
2018-06-05T10:34:37.071Z,27.50
2018-06-05T10:37:05.746Z,27.50
2018-06-05T10:39:34.373Z,27.40
2018-06-05T10:42:03.022Z,27.30
2018-06-05T10:44:32.127Z,27.30
2018-06-05T10:47:00.784Z,27.30
2018-06-05T10:49:29.583Z,27.20
2018-06-05T10:51:58.144Z,27.20
2018-06-05T10:54:27.299Z,27.20
2018-06-05T10:56:55.843Z,27.20
2018-06-05T10:59:24.381Z,27.10
2018-06-05T11:01:53.183Z,27.10
2018-06-05T11:04:21.783Z,27.10
2018-06-05T11:06:50.382Z,27.10
2018-06-05T11:09:19.432Z,27.10
2018-06-05T11:11:48.113Z,27.10
2018-06-05T11:14:17.829Z,27.00
2018-06-05T11:16:46.495Z,27.10
2018-06-05T11:19:15.239Z,27.10
2018-06-05T11:21:44.136Z,27.20
2018-06-05T11:24:13.181Z,27.20
2018-06-05T11:26:41.864Z,27.20
2018-06-05T11:29:10.451Z,27.20
2018-06-05T11:31:39.138Z,27.30
2018-06-05T11:34:08.084Z,27.30
2018-06-05T11:39:07.484Z,27.30
2018-06-05T11:41:36.101Z,27.30
2018-06-05T11:44:04.834Z,27.40
2018-06-05T11:49:16.435Z,27.50
2018-06-05T11:51:45.151Z,27.40
2018-06-05T11:54:13.809Z,27.40
2018-06-05T11:56:42.356Z,27.40
2018-06-05T11:59:11.072Z,27.50
2018-06-05T12:01:39.770Z,27.60
2018-06-05T12:04:08.428Z,27.60
2018-06-05T12:06:37.027Z,27.60
2018-06-05T12:09:07.303Z,27.60
2018-06-05T12:11:35.908Z,27.60
2018-06-05T12:14:04.649Z,27.70
2018-06-05T12:16:33.267Z,27.70
2018-06-05T12:19:01.881Z,27.80
2018-06-05T12:21:30.442Z,27.80
2018-06-05T12:23:59.079Z,27.80
2018-06-05T12:26:27.691Z,27.80
2018-06-05T12:28:56.372Z,27.80
2018-06-05T12:31:24.963Z,27.80
2018-06-05T12:33:53.571Z,27.80
2018-06-05T12:36:22.335Z,27.80
2018-06-05T12:38:51.000Z,27.80
2018-06-05T12:41:19.680Z,27.80
2018-06-05T12:43:48.292Z,27.80
2018-06-05T12:46:16.907Z,27.80
2018-06-05T12:48:45.535Z,27.80
2018-06-05T12:51:14.251Z,27.80
2018-06-05T12:53:42.845Z,27.80
2018-06-05T12:56:12.234Z,27.80
2018-06-05T12:58:40.827Z,27.90
2018-06-05T13:01:09.384Z,27.80
2018-06-05T13:03:38.095Z,27.80
2018-06-05T13:06:07.069Z,27.80
2018-06-05T13:08:36.171Z,27.80
2018-06-05T13:11:04.967Z,27.80
2018-06-05T13:13:33.513Z,27.90
2018-06-05T13:16:02.083Z,27.90
2018-06-05T13:18:30.723Z,27.90
2018-06-05T13:20:59.393Z,27.90
2018-06-05T13:23:28.055Z,27.90
2018-06-05T13:25:56.944Z,27.90
2018-06-05T13:28:25.671Z,27.90
2018-06-05T13:30:54.259Z,27.90
2018-06-05T13:33:23.029Z,27.80
2018-06-05T13:35:51.616Z,27.80
2018-06-05T13:38:20.179Z,27.70
2018-06-05T13:40:48.866Z,27.70
2018-06-05T13:43:17.470Z,27.70
2018-06-05T13:45:46.269Z,27.80
2018-06-05T13:48:15.055Z,27.80
2018-06-05T13:50:43.733Z,27.90
2018-06-05T13:53:12.524Z,28.00
2018-06-05T13:55:41.326Z,27.90
2018-06-05T13:58:09.943Z,27.90
2018-06-05T14:00:38.577Z,28.00
2018-06-05T14:03:07.278Z,28.00
2018-06-05T14:05:35.955Z,28.00
2018-06-05T14:08:04.775Z,28.10
2018-06-05T14:10:33.440Z,28.20
2018-06-05T14:13:02.436Z,28.20
2018-06-05T14:15:31.433Z,28.30
2018-06-05T14:18:00.028Z,28.40
2018-06-05T14:20:28.672Z,28.40
2018-06-05T14:22:57.480Z,28.40
2018-06-05T14:25:26.081Z,28.30
2018-06-05T14:27:55.008Z,28.20
2018-06-05T14:30:23.745Z,28.10
2018-06-05T14:32:52.447Z,28.10
2018-06-05T14:35:21.170Z,28.20
2018-06-05T14:37:49.805Z,28.10
2018-06-05T14:40:18.445Z,28.20
2018-06-05T14:42:47.060Z,28.10
2018-06-05T14:45:15.908Z,28.20
2018-06-05T14:47:44.461Z,28.20
2018-06-05T14:50:13.139Z,28.20
2018-06-05T14:52:41.888Z,28.30
2018-06-05T14:55:10.514Z,28.40
2018-06-05T14:57:39.600Z,28.50
2018-06-05T15:00:08.263Z,28.40
2018-06-05T15:02:36.879Z,28.40
2018-06-05T15:05:05.489Z,28.40
2018-06-05T15:07:34.111Z,28.50
2018-06-05T15:10:02.758Z,28.40
2018-06-05T15:12:31.420Z,28.40
2018-06-05T15:15:00.075Z,28.30
2018-06-05T15:17:28.705Z,28.30
2018-06-05T15:19:57.352Z,28.50
2018-06-05T15:22:26.083Z,28.40
2018-06-05T15:24:54.723Z,28.40
2018-06-05T15:27:23.403Z,28.30
2018-06-05T15:29:52.071Z,28.30
2018-06-05T15:32:20.656Z,28.40
2018-06-05T15:34:49.311Z,28.30
2018-06-05T15:37:17.995Z,28.40
2018-06-05T15:39:46.685Z,28.50
2018-06-05T15:42:15.435Z,28.50
2018-06-05T15:44:44.059Z,28.50
2018-06-05T15:47:12.707Z,28.50
2018-06-05T15:49:41.256Z,28.50
2018-06-05T15:52:09.877Z,28.50
2018-06-05T15:54:38.503Z,28.50
2018-06-05T15:57:07.184Z,28.50
2018-06-05T15:59:35.765Z,28.50
2018-06-05T16:02:04.384Z,28.50
2018-06-05T16:04:32.920Z,28.50
2018-06-05T16:07:01.517Z,28.50
2018-06-05T16:09:30.063Z,28.50
2018-06-05T16:11:58.788Z,28.40
2018-06-05T16:14:27.364Z,28.40
2018-06-05T16:16:56.048Z,28.40
2018-06-05T16:19:24.699Z,28.30
2018-06-05T16:21:53.296Z,28.20
2018-06-05T16:24:22.024Z,28.20
2018-06-05T16:26:50.609Z,28.20
2018-06-05T16:29:19.276Z,28.30
2018-06-05T16:34:16.182Z,28.30
2018-06-05T16:36:44.799Z,28.20
2018-06-05T16:39:13.489Z,28.20
2018-06-05T16:41:42.053Z,28.20
2018-06-05T16:44:11.211Z,28.20
2018-06-05T16:46:40.010Z,28.10
2018-06-05T16:49:08.830Z,28.10
2018-06-05T16:51:37.536Z,28.20
2018-06-05T16:54:06.355Z,28.20
2018-06-05T16:56:34.948Z,28.10
2018-06-05T16:59:03.621Z,28.20
2018-06-05T17:01:32.240Z,28.10
2018-06-05T17:04:00.920Z,28.00
2018-06-05T17:06:29.580Z,28.00
2018-06-05T17:08:58.206Z,28.00
2018-06-05T17:11:28.184Z,27.90
2018-06-05T17:13:56.772Z,27.90
2018-06-05T17:16:25.371Z,27.90
2018-06-05T17:18:53.991Z,27.90
2018-06-05T17:21:22.509Z,27.80
2018-06-05T17:23:51.061Z,27.80
2018-06-05T17:26:19.591Z,27.80
2018-06-05T17:28:48.155Z,27.80
2018-06-05T17:31:16.971Z,27.80
2018-06-05T17:33:45.504Z,27.80
2018-06-05T17:36:14.116Z,27.70
2018-06-05T17:38:42.634Z,27.70
2018-06-05T17:41:11.213Z,27.70
2018-06-05T17:43:39.766Z,27.70
2018-06-05T17:46:08.555Z,27.60
2018-06-05T17:48:37.116Z,27.60
2018-06-05T17:51:05.775Z,27.60
2018-06-05T17:53:34.254Z,27.70
2018-06-05T17:56:02.855Z,27.60
2018-06-05T17:58:31.436Z,27.60
2018-06-05T18:01:00.313Z,27.50
2018-06-05T18:03:29.055Z,27.50
2018-06-05T18:08:25.861Z,27.50
2018-06-05T18:10:54.467Z,27.50
2018-06-05T18:13:23.051Z,27.50
2018-06-05T18:15:51.660Z,27.40
2018-06-05T18:18:20.151Z,27.40
2018-06-05T18:20:48.791Z,27.40
2018-06-05T18:23:17.319Z,27.40
2018-06-05T18:25:45.815Z,27.30
2018-06-05T18:28:14.662Z,27.30
2018-06-05T18:30:43.589Z,27.30
2018-06-05T18:33:12.295Z,27.20
2018-06-05T18:35:41.014Z,27.20
2018-06-05T18:38:09.539Z,27.20
2018-06-05T18:40:38.296Z,27.20
2018-06-05T18:43:06.869Z,27.10
2018-06-05T18:45:35.825Z,27.10
2018-06-05T18:48:04.376Z,27.10
2018-06-05T18:50:32.927Z,27.10
2018-06-05T18:53:01.456Z,27.00
2018-06-05T18:55:30.039Z,27.00
2018-06-05T18:57:58.632Z,27.00
2018-06-05T19:00:27.464Z,27.00
2018-06-05T19:02:55.964Z,27.00
2018-06-05T19:05:24.500Z,26.90
2018-06-05T19:07:53.211Z,26.90
2018-06-05T19:10:21.715Z,26.90
2018-06-05T19:12:50.265Z,26.80
2018-06-05T19:15:19.190Z,26.80
2018-06-05T19:17:47.755Z,26.70
2018-06-05T19:20:16.256Z,26.70
2018-06-05T19:22:44.802Z,26.70
2018-06-05T19:25:13.402Z,26.70
2018-06-05T19:27:42.099Z,26.70
2018-06-05T19:30:10.678Z,26.60
2018-06-05T19:32:39.483Z,26.60
2018-06-05T19:35:08.033Z,26.60
2018-06-05T19:37:36.567Z,26.60
2018-06-05T19:40:05.504Z,26.60
2018-06-05T19:42:34.025Z,26.60
2018-06-05T19:45:02.597Z,26.50
2018-06-05T19:47:31.135Z,26.50
2018-06-05T19:49:59.668Z,26.50
2018-06-05T19:52:28.307Z,26.40
2018-06-05T19:54:56.831Z,26.40
2018-06-05T19:57:25.415Z,26.40
2018-06-05T19:59:53.977Z,26.40
2018-06-05T20:02:22.553Z,26.30
2018-06-05T20:04:51.066Z,26.30
2018-06-05T20:07:19.684Z,26.30
2018-06-05T20:09:48.305Z,26.30
2018-06-05T20:12:16.796Z,26.20
2018-06-05T20:14:45.328Z,26.10
2018-06-05T20:17:13.851Z,26.10
2018-06-05T20:19:42.363Z,26.10
2018-06-05T20:22:10.902Z,26.00
2018-06-05T20:24:39.467Z,25.90
2018-06-05T20:27:08.399Z,25.90
2018-06-05T20:29:36.940Z,25.80
2018-06-05T20:32:05.545Z,25.80
2018-06-05T20:34:34.051Z,25.80
2018-06-05T20:37:02.695Z,25.70
2018-06-05T20:41:59.604Z,25.60
2018-06-05T20:44:28.124Z,25.40
2018-06-05T20:46:56.729Z,25.30
2018-06-05T20:49:25.311Z,25.20
2018-06-05T20:51:53.947Z,25.20
2018-06-05T20:54:22.420Z,25.10
2018-06-05T20:56:50.967Z,25.10
2018-06-05T20:59:19.474Z,25.00
2018-06-05T21:01:48.031Z,25.00
2018-06-05T21:06:45.425Z,25.00
2018-06-05T21:09:14.021Z,25.00
2018-06-05T21:11:42.864Z,24.90
2018-06-05T21:14:11.441Z,24.90
2018-06-05T21:16:39.972Z,24.80
2018-06-05T21:19:08.508Z,24.80
2018-06-05T21:24:05.818Z,24.80
2018-06-05T21:26:34.386Z,24.80
2018-06-05T21:29:02.902Z,24.80
2018-06-05T21:31:31.564Z,24.80
2018-06-05T21:34:00.106Z,24.80
2018-06-05T21:36:28.726Z,24.70
2018-06-05T21:38:57.348Z,24.70
2018-06-05T21:41:25.868Z,24.60
2018-06-05T21:43:54.471Z,24.60
2018-06-05T21:46:23.083Z,24.60
2018-06-05T21:48:51.676Z,24.60
2018-06-05T21:51:20.224Z,24.60
2018-06-05T21:53:48.792Z,24.50
2018-06-05T21:56:17.408Z,24.60
2018-06-05T21:58:45.974Z,24.50
2018-06-05T22:03:42.832Z,24.60
2018-06-05T22:06:11.608Z,24.50
2018-06-05T22:08:40.488Z,24.40
2018-06-05T22:11:09.088Z,24.40
2018-06-05T22:16:05.895Z,24.30
2018-06-05T22:18:34.416Z,24.10
2018-06-05T22:21:02.922Z,24.20
2018-06-05T22:23:31.531Z,24.10
2018-06-05T22:26:00.127Z,23.90
2018-06-05T22:28:28.744Z,23.90
2018-06-05T22:30:57.278Z,23.90
2018-06-05T22:33:25.871Z,23.90
2018-06-05T22:35:54.401Z,23.90
2018-06-05T22:38:23.088Z,23.90
2018-06-05T22:40:51.638Z,23.90
2018-06-05T22:43:20.628Z,23.80
2018-06-05T22:45:49.510Z,23.90
2018-06-05T22:48:18.307Z,23.80
2018-06-05T22:50:47.378Z,23.80
2018-06-05T22:53:15.968Z,23.80
2018-06-05T22:55:44.524Z,23.70
2018-06-05T22:58:13.160Z,23.70
2018-06-05T23:00:42.007Z,23.80
2018-06-05T23:03:11.188Z,23.70
2018-06-05T23:08:08.252Z,23.70
2018-06-05T23:10:36.839Z,23.70
2018-06-05T23:13:05.475Z,23.70
2018-06-05T23:15:34.067Z,23.60
2018-06-05T23:18:02.652Z,23.60
2018-06-05T23:20:31.227Z,23.60
2018-06-05T23:22:59.786Z,23.60
2018-06-05T23:25:28.291Z,23.60
2018-06-05T23:27:56.875Z,23.60
2018-06-05T23:30:25.419Z,23.60
2018-06-05T23:32:54.363Z,23.40
2018-06-05T23:35:22.884Z,23.40
2018-06-05T23:37:51.427Z,23.40
2018-06-05T23:40:19.963Z,23.50
2018-06-05T23:42:48.748Z,23.50
2018-06-05T23:45:17.476Z,23.50
2018-06-05T23:47:46.081Z,23.50
2018-06-05T23:50:14.591Z,23.60
2018-06-05T23:52:43.129Z,23.50
2018-06-05T23:55:11.688Z,23.60
2018-06-05T23:57:40.256Z,23.60
